sensor_id;sensor_type;location;lat;lon;timestamp;P1;durP1;ratioP1;P2;durP2;ratioP2
2201;SDS011;1107;48.654;9.250;2023-04-25T00:02:10;3.90;;;3.70;;
2201;SDS011;1107;48.654;9.250;2023-04-25T00:04:39;4.30;;;4.10;;
2201;SDS011;1107;48.654;9.250;2023-04-25T00:07:07;4.23;;;4.00;;
2201;SDS011;1107;48.654;9.250;2023-04-25T00:09:41;4.33;;;4.07;;
2201;SDS011;1107;48.654;9.250;2023-04-25T00:12:08;5.27;;;4.97;;
2201;SDS011;1107;48.654;9.250;2023-04-25T00:14:39;4.73;;;4.33;;
2201;SDS011;1107;48.654;9.250;2023-04-25T00:17:09;7.40;;;4.30;;
2201;SDS011;1107;48.654;9.250;2023-04-25T00:19:37;5.20;;;4.90;;
2201;SDS011;1107;48.654;9.250;2023-04-25T00:22:05;4.77;;;4.47;;
2201;SDS011;1107;48.654;9.250;2023-04-25T00:24:32;5.83;;;4.17;;
2201;SDS011;1107;48.654;9.250;2023-04-25T00:26:59;6.00;;;4.50;;
2201;SDS011;1107;48.654;9.250;2023-04-25T00:29:26;8.67;;;7.97;;
2201;SDS011;1107;48.654;9.250;2023-04-25T00:31:53;10.03;;;9.03;;
2201;SDS011;1107;48.654;9.250;2023-04-25T00:34:20;5.60;;;5.30;;
2201;SDS011;1107;48.654;9.250;2023-04-25T00:36:47;7.77;;;7.00;;
2201;SDS011;1107;48.654;9.250;2023-04-25T00:39:15;8.60;;;5.00;;
2201;SDS011;1107;48.654;9.250;2023-04-25T00:41:42;8.67;;;4.40;;
2201;SDS011;1107;48.654;9.250;2023-04-25T00:44:11;4.83;;;4.63;;
2201;SDS011;1107;48.654;9.250;2023-04-25T00:46:38;5.17;;;4.63;;
2201;SDS011;1107;48.654;9.250;2023-04-25T00:49:05;4.77;;;4.47;;
2201;SDS011;1107;48.654;9.250;2023-04-25T00:51:32;6.50;;;4.40;;
2201;SDS011;1107;48.654;9.250;2023-04-25T00:54:00;5.27;;;4.97;;
2201;SDS011;1107;48.654;9.250;2023-04-25T00:56:29;5.03;;;4.63;;
2201;SDS011;1107;48.654;9.250;2023-04-25T00:58:56;4.50;;;4.30;;
2201;SDS011;1107;48.654;9.250;2023-04-25T01:01:23;5.30;;;5.00;;
2201;SDS011;1107;48.654;9.250;2023-04-25T01:03:50;4.83;;;4.53;;
2201;SDS011;1107;48.654;9.250;2023-04-25T01:06:19;6.10;;;5.27;;
2201;SDS011;1107;48.654;9.250;2023-04-25T01:08:47;4.73;;;4.43;;
2201;SDS011;1107;48.654;9.250;2023-04-25T01:11:14;4.53;;;4.27;;
2201;SDS011;1107;48.654;9.250;2023-04-25T01:13:42;4.73;;;4.43;;
2201;SDS011;1107;48.654;9.250;2023-04-25T01:16:09;5.77;;;4.70;;
2201;SDS011;1107;48.654;9.250;2023-04-25T01:18:36;4.77;;;4.47;;
2201;SDS011;1107;48.654;9.250;2023-04-25T01:21:08;4.90;;;4.60;;
2201;SDS011;1107;48.654;9.250;2023-04-25T01:23:36;4.70;;;4.10;;
2201;SDS011;1107;48.654;9.250;2023-04-25T01:26:03;6.00;;;4.13;;
2201;SDS011;1107;48.654;9.250;2023-04-25T01:28:31;11.63;;;4.00;;
2201;SDS011;1107;48.654;9.250;2023-04-25T01:31:00;3.97;;;3.63;;
2201;SDS011;1107;48.654;9.250;2023-04-25T01:33:29;5.00;;;4.70;;
2201;SDS011;1107;48.654;9.250;2023-04-25T01:35:56;5.07;;;4.67;;
2201;SDS011;1107;48.654;9.250;2023-04-25T01:38:25;4.43;;;4.17;;
2201;SDS011;1107;48.654;9.250;2023-04-25T01:40:52;4.20;;;4.00;;
2201;SDS011;1107;48.654;9.250;2023-04-25T01:43:21;4.00;;;3.70;;
2201;SDS011;1107;48.654;9.250;2023-04-25T01:45:48;4.30;;;4.00;;
2201;SDS011;1107;48.654;9.250;2023-04-25T02:10:26;4.07;;;3.87;;
2201;SDS011;1107;48.654;9.250;2023-04-25T02:12:55;3.87;;;3.57;;
2201;SDS011;1107;48.654;9.250;2023-04-25T02:15:23;3.90;;;3.70;;
2201;SDS011;1107;48.654;9.250;2023-04-25T02:17:50;4.90;;;3.37;;
2201;SDS011;1107;48.654;9.250;2023-04-25T02:20:19;4.88;;;4.63;;
2201;SDS011;1107;48.654;9.250;2023-04-25T02:22:46;4.67;;;3.97;;
2201;SDS011;1107;48.654;9.250;2023-04-25T02:25:13;4.30;;;3.90;;
2201;SDS011;1107;48.654;9.250;2023-04-25T02:27:41;2.83;;;2.60;;
2201;SDS011;1107;48.654;9.250;2023-04-25T02:30:10;3.50;;;3.27;;
2201;SDS011;1107;48.654;9.250;2023-04-25T02:32:37;4.23;;;3.83;;
2201;SDS011;1107;48.654;9.250;2023-04-25T02:35:05;4.13;;;3.83;;
2201;SDS011;1107;48.654;9.250;2023-04-25T02:37:32;3.73;;;3.53;;
2201;SDS011;1107;48.654;9.250;2023-04-25T02:40:00;7.57;;;3.28;;
2201;SDS011;1107;48.654;9.250;2023-04-25T02:42:28;8.87;;;4.00;;
2201;SDS011;1107;48.654;9.250;2023-04-25T02:44:54;3.85;;;3.58;;
2201;SDS011;1107;48.654;9.250;2023-04-25T02:47:23;4.00;;;3.70;;
2201;SDS011;1107;48.654;9.250;2023-04-25T02:49:50;5.43;;;3.40;;
2201;SDS011;1107;48.654;9.250;2023-04-25T02:52:17;5.50;;;5.20;;
2201;SDS011;1107;48.654;9.250;2023-04-25T02:54:44;4.75;;;3.85;;
2201;SDS011;1107;48.654;9.250;2023-04-25T02:57:11;4.22;;;3.83;;
2201;SDS011;1107;48.654;9.250;2023-04-25T02:59:38;4.47;;;4.15;;
2201;SDS011;1107;48.654;9.250;2023-04-25T03:02:05;4.18;;;3.88;;
2201;SDS011;1107;48.654;9.250;2023-04-25T03:04:33;3.80;;;3.60;;
2201;SDS011;1107;48.654;9.250;2023-04-25T03:07:00;4.13;;;3.93;;
2201;SDS011;1107;48.654;9.250;2023-04-25T03:09:27;3.60;;;3.40;;
2201;SDS011;1107;48.654;9.250;2023-04-25T03:11:54;4.00;;;3.75;;
2201;SDS011;1107;48.654;9.250;2023-04-25T03:14:21;4.93;;;3.72;;
2201;SDS011;1107;48.654;9.250;2023-04-25T03:16:48;4.40;;;3.20;;
2201;SDS011;1107;48.654;9.250;2023-04-25T03:19:15;4.00;;;3.70;;
2201;SDS011;1107;48.654;9.250;2023-04-25T03:21:43;3.50;;;3.30;;
2201;SDS011;1107;48.654;9.250;2023-04-25T03:24:11;4.28;;;3.88;;
2201;SDS011;1107;48.654;9.250;2023-04-25T03:26:38;4.72;;;4.43;;
2201;SDS011;1107;48.654;9.250;2023-04-25T03:29:04;4.20;;;3.90;;
2201;SDS011;1107;48.654;9.250;2023-04-25T03:31:31;3.92;;;3.60;;
2201;SDS011;1107;48.654;9.250;2023-04-25T03:33:58;6.47;;;3.87;;
2201;SDS011;1107;48.654;9.250;2023-04-25T03:36:25;4.00;;;3.80;;
2201;SDS011;1107;48.654;9.250;2023-04-25T03:38:54;4.23;;;3.93;;
2201;SDS011;1107;48.654;9.250;2023-04-25T03:41:21;9.23;;;3.97;;
2201;SDS011;1107;48.654;9.250;2023-04-25T03:43:48;4.00;;;3.70;;
2201;SDS011;1107;48.654;9.250;2023-04-25T03:46:15;3.95;;;3.65;;
2201;SDS011;1107;48.654;9.250;2023-04-25T03:48:42;4.07;;;3.88;;
2201;SDS011;1107;48.654;9.250;2023-04-25T03:51:09;4.07;;;3.87;;
2201;SDS011;1107;48.654;9.250;2023-04-25T03:53:35;3.88;;;3.67;;
2201;SDS011;1107;48.654;9.250;2023-04-25T03:56:04;5.28;;;4.30;;
2201;SDS011;1107;48.654;9.250;2023-04-25T03:58:31;4.43;;;4.10;;
2201;SDS011;1107;48.654;9.250;2023-04-25T04:00:58;4.57;;;4.38;;
2201;SDS011;1107;48.654;9.250;2023-04-25T04:03:27;4.95;;;4.65;;
2201;SDS011;1107;48.654;9.250;2023-04-25T04:05:54;5.63;;;4.18;;
2201;SDS011;1107;48.654;9.250;2023-04-25T04:08:21;5.07;;;4.68;;
2201;SDS011;1107;48.654;9.250;2023-04-25T04:10:48;5.20;;;4.68;;
2201;SDS011;1107;48.654;9.250;2023-04-25T04:13:16;4.20;;;3.87;;
2201;SDS011;1107;48.654;9.250;2023-04-25T04:15:43;4.90;;;4.50;;
2201;SDS011;1107;48.654;9.250;2023-04-25T04:18:10;4.33;;;4.03;;
2201;SDS011;1107;48.654;9.250;2023-04-25T04:20:37;4.60;;;4.20;;
2201;SDS011;1107;48.654;9.250;2023-04-25T04:23:04;5.93;;;4.28;;
2201;SDS011;1107;48.654;9.250;2023-04-25T04:25:31;4.28;;;3.97;;
2201;SDS011;1107;48.654;9.250;2023-04-25T04:27:59;4.00;;;3.70;;
2201;SDS011;1107;48.654;9.250;2023-04-25T04:30:27;4.32;;;4.03;;
2201;SDS011;1107;48.654;9.250;2023-04-25T04:32:56;4.95;;;3.65;;
2201;SDS011;1107;48.654;9.250;2023-04-25T04:35:23;5.50;;;4.10;;
2201;SDS011;1107;48.654;9.250;2023-04-25T04:37:50;3.92;;;3.63;;
2201;SDS011;1107;48.654;9.250;2023-04-25T04:40:17;5.03;;;4.47;;
2201;SDS011;1107;48.654;9.250;2023-04-25T04:42:45;4.40;;;4.10;;
2201;SDS011;1107;48.654;9.250;2023-04-25T04:45:13;5.25;;;4.85;;
2201;SDS011;1107;48.654;9.250;2023-04-25T04:47:42;4.63;;;4.22;;
2201;SDS011;1107;48.654;9.250;2023-04-25T04:50:10;4.53;;;4.23;;
2201;SDS011;1107;48.654;9.250;2023-04-25T04:52:38;7.68;;;7.18;;
2201;SDS011;1107;48.654;9.250;2023-04-25T04:55:05;4.00;;;3.70;;
2201;SDS011;1107;48.654;9.250;2023-04-25T04:57:33;4.28;;;3.97;;
2201;SDS011;1107;48.654;9.250;2023-04-25T05:00:00;5.30;;;5.00;;
2201;SDS011;1107;48.654;9.250;2023-04-25T05:02:27;6.80;;;4.73;;
2201;SDS011;1107;48.654;9.250;2023-04-25T05:04:56;5.00;;;3.83;;
2201;SDS011;1107;48.654;9.250;2023-04-25T05:07:23;6.23;;;3.87;;
2201;SDS011;1107;48.654;9.250;2023-04-25T05:09:50;3.67;;;3.47;;
2201;SDS011;1107;48.654;9.250;2023-04-25T05:12:16;5.43;;;5.03;;
2201;SDS011;1107;48.654;9.250;2023-04-25T05:14:43;4.30;;;4.10;;
2201;SDS011;1107;48.654;9.250;2023-04-25T05:17:10;4.30;;;4.00;;
2201;SDS011;1107;48.654;9.250;2023-04-25T05:19:38;6.20;;;4.00;;
2201;SDS011;1107;48.654;9.250;2023-04-25T05:22:07;4.35;;;3.67;;
2201;SDS011;1107;48.654;9.250;2023-04-25T05:24:34;4.00;;;3.70;;
2201;SDS011;1107;48.654;9.250;2023-04-25T05:27:01;4.17;;;3.80;;
2201;SDS011;1107;48.654;9.250;2023-04-25T05:29:27;5.97;;;3.87;;
2201;SDS011;1107;48.654;9.250;2023-04-25T05:31:54;4.30;;;4.00;;
2201;SDS011;1107;48.654;9.250;2023-04-25T05:34:21;3.93;;;3.63;;
2201;SDS011;1107;48.654;9.250;2023-04-25T05:36:48;5.13;;;3.70;;
2201;SDS011;1107;48.654;9.250;2023-04-25T05:39:17;3.93;;;3.63;;
2201;SDS011;1107;48.654;9.250;2023-04-25T05:41:43;4.07;;;3.77;;
2201;SDS011;1107;48.654;9.250;2023-04-25T05:44:10;3.47;;;3.28;;
2201;SDS011;1107;48.654;9.250;2023-04-25T05:46:37;4.00;;;3.70;;
2201;SDS011;1107;48.654;9.250;2023-04-25T05:49:04;4.00;;;3.70;;
2201;SDS011;1107;48.654;9.250;2023-04-25T05:51:32;3.43;;;3.13;;
2201;SDS011;1107;48.654;9.250;2023-04-25T05:53:59;4.80;;;4.50;;
2201;SDS011;1107;48.654;9.250;2023-04-25T05:56:27;4.10;;;3.70;;
2201;SDS011;1107;48.654;9.250;2023-04-25T05:58:54;6.93;;;6.43;;
2201;SDS011;1107;48.654;9.250;2023-04-25T06:01:21;3.90;;;3.70;;
2201;SDS011;1107;48.654;9.250;2023-04-25T06:03:49;5.37;;;4.77;;
2201;SDS011;1107;48.654;9.250;2023-04-25T06:06:16;6.27;;;5.70;;
2201;SDS011;1107;48.654;9.250;2023-04-25T06:08:43;5.90;;;5.40;;
2201;SDS011;1107;48.654;9.250;2023-04-25T06:11:10;4.83;;;4.40;;
2201;SDS011;1107;48.654;9.250;2023-04-25T06:13:38;4.50;;;4.10;;
2201;SDS011;1107;48.654;9.250;2023-04-25T06:16:05;4.20;;;3.90;;
2201;SDS011;1107;48.654;9.250;2023-04-25T06:18:32;7.20;;;3.67;;
2201;SDS011;1107;48.654;9.250;2023-04-25T06:20:59;4.07;;;3.40;;
2201;SDS011;1107;48.654;9.250;2023-04-25T06:23:27;7.83;;;4.20;;
2201;SDS011;1107;48.654;9.250;2023-04-25T06:25:54;4.67;;;4.37;;
2201;SDS011;1107;48.654;9.250;2023-04-25T06:28:21;3.80;;;3.60;;
2201;SDS011;1107;48.654;9.250;2023-04-25T06:30:50;12.40;;;4.10;;
2201;SDS011;1107;48.654;9.250;2023-04-25T06:33:17;6.60;;;4.17;;
2201;SDS011;1107;48.654;9.250;2023-04-25T06:35:45;4.47;;;4.27;;
2201;SDS011;1107;48.654;9.250;2023-04-25T06:38:12;4.47;;;4.13;;
2201;SDS011;1107;48.654;9.250;2023-04-25T06:40:39;4.27;;;3.90;;
2201;SDS011;1107;48.654;9.250;2023-04-25T06:43:05;4.30;;;4.00;;
2201;SDS011;1107;48.654;9.250;2023-04-25T06:45:32;4.23;;;3.93;;
2201;SDS011;1107;48.654;9.250;2023-04-25T06:48:01;4.30;;;4.00;;
2201;SDS011;1107;48.654;9.250;2023-04-25T06:50:28;8.00;;;4.17;;
2201;SDS011;1107;48.654;9.250;2023-04-25T06:52:54;6.93;;;4.60;;
2201;SDS011;1107;48.654;9.250;2023-04-25T06:55:21;4.60;;;4.20;;
2201;SDS011;1107;48.654;9.250;2023-04-25T06:57:48;5.53;;;4.10;;
2201;SDS011;1107;48.654;9.250;2023-04-25T07:00:16;4.33;;;4.13;;
2201;SDS011;1107;48.654;9.250;2023-04-25T07:02:43;4.57;;;4.37;;
2201;SDS011;1107;48.654;9.250;2023-04-25T07:05:12;4.30;;;3.90;;
2201;SDS011;1107;48.654;9.250;2023-04-25T07:07:38;3.80;;;3.60;;
2201;SDS011;1107;48.654;9.250;2023-04-25T07:10:05;4.50;;;4.10;;
2201;SDS011;1107;48.654;9.250;2023-04-25T07:12:33;4.60;;;4.33;;
2201;SDS011;1107;48.654;9.250;2023-04-25T07:14:59;3.77;;;3.57;;
2201;SDS011;1107;48.654;9.250;2023-04-25T07:17:31;4.50;;;4.20;;
2201;SDS011;1107;48.654;9.250;2023-04-25T07:19:59;4.87;;;4.47;;
2201;SDS011;1107;48.654;9.250;2023-04-25T07:22:27;4.03;;;3.83;;
2201;SDS011;1107;48.654;9.250;2023-04-25T07:24:54;4.03;;;3.83;;
2201;SDS011;1107;48.654;9.250;2023-04-25T07:27:21;4.57;;;4.27;;
2201;SDS011;1107;48.654;9.250;2023-04-25T07:29:48;5.17;;;4.47;;
2201;SDS011;1107;48.654;9.250;2023-04-25T07:32:15;4.60;;;4.30;;
2201;SDS011;1107;48.654;9.250;2023-04-25T07:34:42;4.77;;;4.47;;
2201;SDS011;1107;48.654;9.250;2023-04-25T07:37:09;4.97;;;4.67;;
2201;SDS011;1107;48.654;9.250;2023-04-25T07:39:37;4.50;;;4.10;;
2201;SDS011;1107;48.654;9.250;2023-04-25T07:42:04;4.47;;;4.27;;
2201;SDS011;1107;48.654;9.250;2023-04-25T07:44:33;4.23;;;4.03;;
2201;SDS011;1107;48.654;9.250;2023-04-25T07:47:03;4.30;;;4.10;;
2201;SDS011;1107;48.654;9.250;2023-04-25T07:49:32;4.27;;;4.07;;
2201;SDS011;1107;48.654;9.250;2023-04-25T07:51:59;5.47;;;3.63;;
2201;SDS011;1107;48.654;9.250;2023-04-25T07:54:26;4.63;;;4.20;;
2201;SDS011;1107;48.654;9.250;2023-04-25T07:56:55;4.10;;;3.83;;
2201;SDS011;1107;48.654;9.250;2023-04-25T07:59:22;4.67;;;4.40;;
2201;SDS011;1107;48.654;9.250;2023-04-25T08:01:49;4.97;;;4.67;;
2201;SDS011;1107;48.654;9.250;2023-04-25T08:04:16;4.53;;;4.33;;
2201;SDS011;1107;48.654;9.250;2023-04-25T08:06:43;5.17;;;4.63;;
2201;SDS011;1107;48.654;9.250;2023-04-25T08:09:10;4.50;;;4.30;;
2201;SDS011;1107;48.654;9.250;2023-04-25T08:11:37;5.27;;;4.97;;
2201;SDS011;1107;48.654;9.250;2023-04-25T08:14:06;7.40;;;6.80;;
2201;SDS011;1107;48.654;9.250;2023-04-25T08:16:33;5.33;;;5.03;;
2201;SDS011;1107;48.654;9.250;2023-04-25T08:19:00;7.00;;;6.70;;
2201;SDS011;1107;48.654;9.250;2023-04-25T08:21:27;6.20;;;5.90;;
2201;SDS011;1107;48.654;9.250;2023-04-25T08:23:54;5.40;;;5.10;;
2201;SDS011;1107;48.654;9.250;2023-04-25T08:26:22;5.60;;;5.30;;
2201;SDS011;1107;48.654;9.250;2023-04-25T08:28:49;7.40;;;7.00;;
2201;SDS011;1107;48.654;9.250;2023-04-25T08:31:18;6.03;;;5.50;;
2201;SDS011;1107;48.654;9.250;2023-04-25T08:33:45;7.70;;;6.10;;
2201;SDS011;1107;48.654;9.250;2023-04-25T08:36:12;5.37;;;5.07;;
2201;SDS011;1107;48.654;9.250;2023-04-25T08:38:39;6.67;;;6.07;;
2201;SDS011;1107;48.654;9.250;2023-04-25T08:41:06;6.80;;;6.40;;
2201;SDS011;1107;48.654;9.250;2023-04-25T08:43:33;5.33;;;5.03;;
2201;SDS011;1107;48.654;9.250;2023-04-25T08:46:01;4.77;;;4.47;;
2201;SDS011;1107;48.654;9.250;2023-04-25T08:48:31;6.87;;;6.37;;
2201;SDS011;1107;48.654;9.250;2023-04-25T08:50:59;6.20;;;5.70;;
2201;SDS011;1107;48.654;9.250;2023-04-25T08:53:29;11.13;;;10.43;;
2201;SDS011;1107;48.654;9.250;2023-04-25T08:55:58;9.93;;;8.90;;
2201;SDS011;1107;48.654;9.250;2023-04-25T08:58:26;6.03;;;5.73;;
2201;SDS011;1107;48.654;9.250;2023-04-25T09:00:54;5.53;;;5.03;;
2201;SDS011;1107;48.654;9.250;2023-04-25T09:03:21;6.50;;;5.90;;
2201;SDS011;1107;48.654;9.250;2023-04-25T09:05:49;5.93;;;5.63;;
2201;SDS011;1107;48.654;9.250;2023-04-25T09:08:17;5.40;;;5.10;;
2201;SDS011;1107;48.654;9.250;2023-04-25T09:10:44;6.43;;;5.90;;
2201;SDS011;1107;48.654;9.250;2023-04-25T09:13:12;5.73;;;5.33;;
2201;SDS011;1107;48.654;9.250;2023-04-25T09:15:47;6.13;;;5.77;;
2201;SDS011;1107;48.654;9.250;2023-04-25T09:18:21;5.80;;;5.20;;
2201;SDS011;1107;48.654;9.250;2023-04-25T09:20:51;5.50;;;5.10;;
2201;SDS011;1107;48.654;9.250;2023-04-25T09:23:19;5.20;;;4.90;;
2201;SDS011;1107;48.654;9.250;2023-04-25T09:25:47;5.17;;;4.87;;
2201;SDS011;1107;48.654;9.250;2023-04-25T09:28:15;6.33;;;4.90;;
2201;SDS011;1107;48.654;9.250;2023-04-25T09:30:42;5.97;;;5.33;;
2201;SDS011;1107;48.654;9.250;2023-04-25T09:33:12;5.60;;;5.30;;
2201;SDS011;1107;48.654;9.250;2023-04-25T09:35:39;5.60;;;5.30;;
2201;SDS011;1107;48.654;9.250;2023-04-25T09:38:10;5.87;;;5.57;;
2201;SDS011;1107;48.654;9.250;2023-04-25T09:40:41;5.27;;;4.97;;
2201;SDS011;1107;48.654;9.250;2023-04-25T09:43:09;6.63;;;5.57;;
2201;SDS011;1107;48.654;9.250;2023-04-25T09:45:40;7.00;;;6.13;;
2201;SDS011;1107;48.654;9.250;2023-04-25T09:48:10;5.97;;;5.60;;
2201;SDS011;1107;48.654;9.250;2023-04-25T09:50:38;4.93;;;4.63;;
2201;SDS011;1107;48.654;9.250;2023-04-25T09:53:05;4.87;;;4.67;;
2201;SDS011;1107;48.654;9.250;2023-04-25T09:55:34;5.93;;;5.37;;
2201;SDS011;1107;48.654;9.250;2023-04-25T09:58:03;4.43;;;4.13;;
2201;SDS011;1107;48.654;9.250;2023-04-25T10:00:33;5.20;;;4.90;;
2201;SDS011;1107;48.654;9.250;2023-04-25T10:03:00;5.50;;;5.20;;
2201;SDS011;1107;48.654;9.250;2023-04-25T10:05:30;5.23;;;4.73;;
2201;SDS011;1107;48.654;9.250;2023-04-25T10:07:59;5.05;;;4.75;;
2201;SDS011;1107;48.654;9.250;2023-04-25T10:10:28;5.10;;;4.80;;
2201;SDS011;1107;48.654;9.250;2023-04-25T10:13:03;4.78;;;4.47;;
2201;SDS011;1107;48.654;9.250;2023-04-25T10:15:32;6.40;;;4.97;;
2201;SDS011;1107;48.654;9.250;2023-04-25T10:18:01;4.65;;;4.45;;
2201;SDS011;1107;48.654;9.250;2023-04-25T10:20:28;4.00;;;3.73;;
2201;SDS011;1107;48.654;9.250;2023-04-25T10:22:57;4.70;;;4.40;;
2201;SDS011;1107;48.654;9.250;2023-04-25T10:25:30;3.80;;;3.60;;
2201;SDS011;1107;48.654;9.250;2023-04-25T10:27:57;3.30;;;3.10;;
2201;SDS011;1107;48.654;9.250;2023-04-25T10:30:28;3.77;;;3.57;;
2201;SDS011;1107;48.654;9.250;2023-04-25T10:32:55;3.73;;;3.53;;
2201;SDS011;1107;48.654;9.250;2023-04-25T10:35:24;3.67;;;3.47;;
2201;SDS011;1107;48.654;9.250;2023-04-25T10:37:59;2.80;;;2.60;;
2201;SDS011;1107;48.654;9.250;2023-04-25T10:40:28;2.93;;;2.73;;
2201;SDS011;1107;48.654;9.250;2023-04-25T10:42:57;1.80;;;1.70;;
2201;SDS011;1107;48.654;9.250;2023-04-25T10:46:00;2.45;;;2.25;;
2201;SDS011;1107;48.654;9.250;2023-04-25T10:48:27;2.38;;;2.17;;
2201;SDS011;1107;48.654;9.250;2023-04-25T10:51:06;1.88;;;1.77;;
2201;SDS011;1107;48.654;9.250;2023-04-25T10:53:34;1.70;;;1.45;;
2201;SDS011;1107;48.654;9.250;2023-04-25T10:56:08;3.40;;;3.20;;
2201;SDS011;1107;48.654;9.250;2023-04-25T10:58:41;1.60;;;1.35;;
2201;SDS011;1107;48.654;9.250;2023-04-25T11:01:10;8.63;;;2.63;;
2201;SDS011;1107;48.654;9.250;2023-04-25T11:03:39;1.50;;;1.40;;
2201;SDS011;1107;48.654;9.250;2023-04-25T11:06:09;1.85;;;1.75;;
2201;SDS011;1107;48.654;9.250;2023-04-25T11:08:47;3.20;;;1.53;;
2201;SDS011;1107;48.654;9.250;2023-04-25T11:11:16;1.67;;;1.57;;
2201;SDS011;1107;48.654;9.250;2023-04-25T11:13:44;2.47;;;2.28;;
2201;SDS011;1107;48.654;9.250;2023-04-25T11:16:15;1.70;;;1.60;;
2201;SDS011;1107;48.654;9.250;2023-04-25T11:18:42;2.00;;;1.60;;
2201;SDS011;1107;48.654;9.250;2023-04-25T11:21:10;4.88;;;4.68;;
2201;SDS011;1107;48.654;9.250;2023-04-25T11:23:37;1.50;;;1.30;;
2201;SDS011;1107;48.654;9.250;2023-04-25T11:26:04;1.53;;;1.43;;
2201;SDS011;1107;48.654;9.250;2023-04-25T11:28:31;3.27;;;3.07;;
2201;SDS011;1107;48.654;9.250;2023-04-25T11:30:58;1.70;;;1.30;;
2201;SDS011;1107;48.654;9.250;2023-04-25T11:33:26;1.40;;;1.07;;
2201;SDS011;1107;48.654;9.250;2023-04-25T11:35:54;2.03;;;1.90;;
2201;SDS011;1107;48.654;9.250;2023-04-25T11:38:22;1.60;;;1.50;;
2201;SDS011;1107;48.654;9.250;2023-04-25T11:40:49;1.47;;;1.07;;
2201;SDS011;1107;48.654;9.250;2023-04-25T11:43:17;1.70;;;1.60;;
2201;SDS011;1107;48.654;9.250;2023-04-25T11:45:46;1.80;;;1.43;;
2201;SDS011;1107;48.654;9.250;2023-04-25T11:48:14;1.73;;;1.48;;
2201;SDS011;1107;48.654;9.250;2023-04-25T11:50:42;2.30;;;2.07;;
2201;SDS011;1107;48.654;9.250;2023-04-25T11:53:10;2.00;;;1.90;;
2201;SDS011;1107;48.654;9.250;2023-04-25T11:55:37;2.37;;;2.17;;
2201;SDS011;1107;48.654;9.250;2023-04-25T11:58:05;2.40;;;2.20;;
2201;SDS011;1107;48.654;9.250;2023-04-25T12:00:33;2.33;;;2.13;;
2201;SDS011;1107;48.654;9.250;2023-04-25T12:03:01;2.50;;;2.30;;
2201;SDS011;1107;48.654;9.250;2023-04-25T12:05:29;2.43;;;2.23;;
2201;SDS011;1107;48.654;9.250;2023-04-25T12:07:59;3.07;;;2.87;;
2201;SDS011;1107;48.654;9.250;2023-04-25T12:10:37;2.77;;;2.57;;
2201;SDS011;1107;48.654;9.250;2023-04-25T12:13:17;3.30;;;3.10;;
2201;SDS011;1107;48.654;9.250;2023-04-25T12:15:45;2.87;;;2.67;;
2201;SDS011;1107;48.654;9.250;2023-04-25T12:18:12;2.73;;;2.53;;
2201;SDS011;1107;48.654;9.250;2023-04-25T12:20:41;2.50;;;2.30;;
2201;SDS011;1107;48.654;9.250;2023-04-25T12:23:09;2.57;;;2.37;;
2201;SDS011;1107;48.654;9.250;2023-04-25T12:25:37;3.07;;;2.40;;
2201;SDS011;1107;48.654;9.250;2023-04-25T12:28:10;2.73;;;2.53;;
2201;SDS011;1107;48.654;9.250;2023-04-25T12:30:57;2.77;;;2.57;;
2201;SDS011;1107;48.654;9.250;2023-04-25T12:33:26;3.20;;;3.00;;
2201;SDS011;1107;48.654;9.250;2023-04-25T12:35:53;3.40;;;3.10;;
2201;SDS011;1107;48.654;9.250;2023-04-25T12:38:23;3.63;;;3.40;;
2201;SDS011;1107;48.654;9.250;2023-04-25T12:40:50;3.83;;;3.63;;
2201;SDS011;1107;48.654;9.250;2023-04-25T12:43:17;4.13;;;3.93;;
2201;SDS011;1107;48.654;9.250;2023-04-25T12:45:44;4.03;;;3.83;;
2201;SDS011;1107;48.654;9.250;2023-04-25T12:48:13;4.63;;;4.43;;
2201;SDS011;1107;48.654;9.250;2023-04-25T12:50:40;3.93;;;3.70;;
2201;SDS011;1107;48.654;9.250;2023-04-25T12:53:07;5.53;;;4.07;;
2201;SDS011;1107;48.654;9.250;2023-04-25T12:55:35;4.50;;;4.30;;
2201;SDS011;1107;48.654;9.250;2023-04-25T12:58:02;5.07;;;4.77;;
2201;SDS011;1107;48.654;9.250;2023-04-25T13:00:29;4.57;;;4.27;;
2201;SDS011;1107;48.654;9.250;2023-04-25T13:02:56;4.50;;;4.30;;
2201;SDS011;1107;48.654;9.250;2023-04-25T13:05:24;4.30;;;4.10;;
2201;SDS011;1107;48.654;9.250;2023-04-25T13:07:51;10.87;;;9.60;;
2201;SDS011;1107;48.654;9.250;2023-04-25T13:10:18;5.33;;;4.97;;
2201;SDS011;1107;48.654;9.250;2023-04-25T13:12:46;4.37;;;4.17;;
2201;SDS011;1107;48.654;9.250;2023-04-25T13:15:13;4.70;;;4.40;;
2201;SDS011;1107;48.654;9.250;2023-04-25T13:17:41;4.87;;;4.50;;
2201;SDS011;1107;48.654;9.250;2023-04-25T13:20:08;5.50;;;5.10;;
2201;SDS011;1107;48.654;9.250;2023-04-25T13:22:37;5.50;;;5.20;;
2201;SDS011;1107;48.654;9.250;2023-04-25T13:25:04;4.60;;;4.40;;
2201;SDS011;1107;48.654;9.250;2023-04-25T13:27:33;5.37;;;5.00;;
2201;SDS011;1107;48.654;9.250;2023-04-25T13:30:02;4.80;;;4.60;;
2201;SDS011;1107;48.654;9.250;2023-04-25T13:32:32;4.80;;;4.50;;
2201;SDS011;1107;48.654;9.250;2023-04-25T13:35:01;6.30;;;5.70;;
2201;SDS011;1107;48.654;9.250;2023-04-25T13:37:28;11.33;;;10.60;;
2201;SDS011;1107;48.654;9.250;2023-04-25T13:39:58;7.70;;;5.20;;
2201;SDS011;1107;48.654;9.250;2023-04-25T13:42:25;6.10;;;5.80;;
2201;SDS011;1107;48.654;9.250;2023-04-25T13:44:52;5.87;;;5.37;;
2201;SDS011;1107;48.654;9.250;2023-04-25T13:47:21;5.97;;;4.90;;
2201;SDS011;1107;48.654;9.250;2023-04-25T13:49:48;6.53;;;4.80;;
2201;SDS011;1107;48.654;9.250;2023-04-25T13:52:15;5.90;;;5.50;;
2201;SDS011;1107;48.654;9.250;2023-04-25T13:54:42;6.30;;;6.00;;
2201;SDS011;1107;48.654;9.250;2023-04-25T13:57:09;7.03;;;6.53;;
2201;SDS011;1107;48.654;9.250;2023-04-25T13:59:36;5.23;;;4.93;;
2201;SDS011;1107;48.654;9.250;2023-04-25T14:02:03;9.17;;;8.57;;
2201;SDS011;1107;48.654;9.250;2023-04-25T14:04:32;6.37;;;6.07;;
2201;SDS011;1107;48.654;9.250;2023-04-25T14:06:59;7.17;;;6.20;;
2201;SDS011;1107;48.654;9.250;2023-04-25T14:09:27;7.17;;;6.63;;
2201;SDS011;1107;48.654;9.250;2023-04-25T14:11:54;7.57;;;7.07;;
2201;SDS011;1107;48.654;9.250;2023-04-25T14:14:21;5.90;;;4.97;;
2201;SDS011;1107;48.654;9.250;2023-04-25T14:16:49;5.57;;;5.27;;
2201;SDS011;1107;48.654;9.250;2023-04-25T14:19:19;6.23;;;5.83;;
2201;SDS011;1107;48.654;9.250;2023-04-25T14:21:47;6.50;;;5.37;;
2201;SDS011;1107;48.654;9.250;2023-04-25T14:24:14;5.90;;;5.50;;
2201;SDS011;1107;48.654;9.250;2023-04-25T14:26:41;5.47;;;5.17;;
2201;SDS011;1107;48.654;9.250;2023-04-25T14:29:09;5.40;;;5.10;;
2201;SDS011;1107;48.654;9.250;2023-04-25T14:31:37;5.60;;;5.30;;
2201;SDS011;1107;48.654;9.250;2023-04-25T14:34:05;6.27;;;5.77;;
2201;SDS011;1107;48.654;9.250;2023-04-25T14:36:32;5.90;;;5.50;;
2201;SDS011;1107;48.654;9.250;2023-04-25T14:39:01;6.80;;;6.40;;
2201;SDS011;1107;48.654;9.250;2023-04-25T14:41:30;7.57;;;6.87;;
2201;SDS011;1107;48.654;9.250;2023-04-25T14:43:57;7.73;;;7.17;;
2201;SDS011;1107;48.654;9.250;2023-04-25T14:46:24;7.60;;;7.00;;
2201;SDS011;1107;48.654;9.250;2023-04-25T14:48:51;8.00;;;7.50;;
2201;SDS011;1107;48.654;9.250;2023-04-25T14:51:18;7.13;;;6.77;;
2201;SDS011;1107;48.654;9.250;2023-04-25T14:53:45;8.03;;;7.53;;
2201;SDS011;1107;48.654;9.250;2023-04-25T14:56:13;11.50;;;7.93;;
2201;SDS011;1107;48.654;9.250;2023-04-25T14:58:40;6.80;;;6.50;;
2201;SDS011;1107;48.654;9.250;2023-04-25T15:01:07;6.73;;;6.43;;
2201;SDS011;1107;48.654;9.250;2023-04-25T15:03:34;6.63;;;6.23;;
2201;SDS011;1107;48.654;9.250;2023-04-25T15:06:01;7.30;;;6.70;;
2201;SDS011;1107;48.654;9.250;2023-04-25T15:08:28;10.57;;;6.20;;
2201;SDS011;1107;48.654;9.250;2023-04-25T15:10:55;6.77;;;6.33;;
2201;SDS011;1107;48.654;9.250;2023-04-25T15:13:23;6.90;;;6.20;;
2201;SDS011;1107;48.654;9.250;2023-04-25T15:15:50;6.73;;;6.23;;
2201;SDS011;1107;48.654;9.250;2023-04-25T15:18:19;6.80;;;6.40;;
2201;SDS011;1107;48.654;9.250;2023-04-25T15:20:48;6.47;;;5.87;;
2201;SDS011;1107;48.654;9.250;2023-04-25T15:23:16;6.73;;;6.13;;
2201;SDS011;1107;48.654;9.250;2023-04-25T15:25:43;5.90;;;5.60;;
2201;SDS011;1107;48.654;9.250;2023-04-25T15:28:10;6.57;;;6.07;;
2201;SDS011;1107;48.654;9.250;2023-04-25T15:30:41;7.13;;;6.60;;
2201;SDS011;1107;48.654;9.250;2023-04-25T15:33:10;5.83;;;5.43;;
2201;SDS011;1107;48.654;9.250;2023-04-25T15:35:37;5.60;;;5.10;;
2201;SDS011;1107;48.654;9.250;2023-04-25T15:38:04;5.80;;;5.50;;
2201;SDS011;1107;48.654;9.250;2023-04-25T15:40:31;5.27;;;5.07;;
2201;SDS011;1107;48.654;9.250;2023-04-25T15:42:58;4.50;;;4.10;;